Aircraft
UPR1004 PR-BID B787-10
SBKP
Viracopos International Airport
SAEZ
Minister Pistarini International Airport
Pilot:: Jair
Aircraft:: 787-10
Alternate: SUMU
Network: ivao
FLIGHT DETAILS
Distance: 928nm Duration 02h 36m
Cruise Speed: Flight Level: 35000
Validation: Pending Validation Type Charter
Flight Fuel
ZFW: 160710
Block Fuel/Initial FOB: 49717
Flight Fuel: 1
Cargo
Passengers: 320
Cargo: 12000
ROUTE
ROUTE: sbkp dct saez
REMARKS:
DATE
Date: 26-09-05
Departure Time: 1359
Cargo: 12000
FLIGHT DETAILS
Crashed: No
Validator Comments:
Flight Rating: 95
LANDING ANALYSIS
Landing wind: 211º/15 kt
Landing heading: 349º
Landing VS:: -171 ft/min
Landing IAS:: 147 kt
Landing Force G: 1.1 G
Landing Bank: 1
Landing Pitch: -5
Landing Flaps: 100
Navigation Lights: ON
Landing Lights: ON
Beacon Lights: ON
Strobe Lights: ON
viserfly

ALTITUDE CHART

viserfly

MAIN EVENTS

DATE EVENT IAS ALTITUDE
2026-09-05 13:58:16 FLYacars version 1.3.6 3 2162
2026-09-05 13:58:16 Aircraft boarding in progress 3 2162
2026-09-05 13:58:16 FLAPS 44% 3 2162
2026-09-05 13:58:16 Navigation Lights ON 3 2162
2026-09-05 13:58:16 Beacon Lights ON 3 2162
2026-09-05 13:58:16 Strobe Lights ON 3 2162
2026-09-05 13:58:16 Landing Lights ON 3 2162
2026-09-05 13:58:16 Starting Engine 2 3 2162
2026-09-05 13:58:16 Starting Engine 1 3 2162
2026-09-05 13:58:23 Taxi Lights ON 4 2162
2026-09-05 13:58:58 Aircraft taxiing to runway 9 2162
2026-09-05 13:59:47 Detected Take-off roll, HDG 152, IAS 168kt, GS 174kt, G-force 1.0g, Pitch -4.4deg, Bank -2.7deg, Wind 070/07kt, Temp 22°C 168 2166
2026-09-05 13:59:47 Airborne 168 2166
2026-09-05 13:59:51 Gear UP, IAS 176kt, GS 184kt, ALT 40ft AGL 176 2186
2026-09-05 14:00:06 FLAPS 33% 205kt, ALT 2539ft 205 2539
2026-09-05 14:00:07 FLAPS 22% 206kt, ALT 2575ft 206 2575
2026-09-05 14:00:15 FLAPS 11% 215kt, ALT 2862ft 215 2862
2026-09-05 14:00:37 Taxi Lights OFF 228 3655
2026-09-05 14:01:04 FLAPS 0% 247kt, ALT 4754ft 247 4754
2026-09-05 14:02:24 Landing Lights OFF 253 10616
2026-09-05 14:13:14 Aircraft on Top Of Climb at 36029ft, IAS 298kt, GS 455kt, HDG 246deg, TAT -44deg, WIND 271/89kt 298 36029
2026-09-05 15:54:55 Aircraft on Top Of Descent at 34434ft, IAS 280kt, GS 408kt, HDG 244deg, TAT -43deg, WIND 271/107kt 280 34434
2026-09-05 16:17:13 Landing Lights ON 237 9705
2026-09-05 16:17:17 Taxi Lights ON 237 9614
2026-09-05 16:17:56 FLAPS 11% 235kt, ALT 8709ft 235 8709
2026-09-05 16:18:24 FLAPS 22% 214kt, ALT 8114ft 214 8114
2026-09-05 16:19:07 FLAPS 33% 194kt, ALT 7081ft 194 7081
2026-09-05 16:19:15 FLAPS 44% 191kt, ALT 6869ft 191 6869
2026-09-05 16:20:24 FLAPS 55% 168kt, ALT 5128ft 168 5128
2026-09-05 16:21:01 Stall flag 160 4258
2026-09-05 16:24:53 FLAPS 66% 177kt, ALT 4266ft 177 4266
2026-09-05 16:30:20 FLAPS 77% 180kt, ALT 4123ft 180 4123
2026-09-05 16:31:46 Gear DOWN, IAS 164kt, GS 182kt, ALT 3299ft AGL 164 3375
2026-09-05 16:31:56 FLAPS 88% 160kt, ALT 3235ft 160 3235
2026-09-05 16:31:56 FLAPS 100% 160kt, ALT 3228ft 160 3228
2026-09-05 16:35:32 Landed at destination with a landing rate of -171fpm, G-force 1.1g, Pitch -4.6deg, Bank 0.7deg, HDG 349deg, IAS 147kt, GS 157kt, Wind 211/15kt, Temp 11°C 147 87
2026-09-05 16:35:32 Incorrect altimeter settings on landing 147 87
2026-09-05 16:35:58 FLAPS 88% 45 86
2026-09-05 16:35:58 FLAPS 77% 43 86
2026-09-05 16:35:59 FLAPS 55% 43 86
2026-09-05 16:35:59 FLAPS 44% 43 86
2026-09-05 16:35:59 FLAPS 11% 42 87
2026-09-05 16:35:59 FLAPS 0% 42 87
2026-09-05 16:36:08 Aircraft taxiing to apron 17 89
2026-09-05 16:36:09 Landing Lights OFF 13 89
2026-09-05 16:38:32 Taxi Lights OFF 17 81
2026-09-05 16:38:46 Beacon Lights OFF 11 81
2026-09-05 16:38:53 Aircraft at gate/stand, ground services are moving into position, disembarkation has begun. Remaining FOB 49716kg FLYacars v1.3.6 14 81
viserfly

ACARS DATA

DATE IAS GS ALTITUDE FUEL CONSUMED OAT FLIGHT STATUS
2026-09-05 13:58:46 7 3 2162 0 22 PUSHBACK
2026-09-05 13:59:16 49 50 2161 0 22 TAXI TO RUNWAY
2026-09-05 13:59:46 165 171 2164 0 22 TAKEOFF
2026-09-05 14:00:16 217 227 2907 0 21 TAKEOFF
2026-09-05 14:00:46 230 265 3909 0 18 INITIAL CLIMB
2026-09-05 14:01:16 249 286 5592 0 16 CLIMB
2026-09-05 14:01:46 252 283 7779 0 12 CLIMB
2026-09-05 14:02:16 253 275 10051 0 7 CLIMB
2026-09-05 14:02:46 267 295 11767 0 4 CLIMB
2026-09-05 14:03:16 291 327 13102 0 1 CLIMB
2026-09-05 14:03:46 296 339 14922 0 -1 CLIMB
2026-09-05 14:04:16 296 347 16767 0 -5 CLIMB
2026-09-05 14:04:46 296 355 18504 0 -8 CLIMB
2026-09-05 14:05:16 297 364 20163 0 -11 CLIMB
2026-09-05 14:05:46 296 380 21737 0 -14 CLIMB
2026-09-05 14:06:16 295 385 23143 0 -16 CLIMB
2026-09-05 14:06:46 296 393 24400 0 -19 CLIMB
2026-09-05 14:07:16 296 400 25618 0 -21 CLIMB
2026-09-05 14:07:46 296 406 26760 0 -23 CLIMB
2026-09-05 14:08:16 296 413 27843 0 -26 CLIMB
2026-09-05 14:08:46 295 419 28824 0 -28 CLIMB
2026-09-05 14:09:16 295 426 29745 0 -30 CLIMB
2026-09-05 14:09:46 295 432 30618 0 -32 CLIMB
2026-09-05 14:10:16 296 440 31463 0 -34 CLIMB
2026-09-05 14:10:46 299 444 32339 0 -36 CLIMB
2026-09-05 14:11:16 300 447 33139 0 -37 CLIMB
2026-09-05 14:11:46 300 448 33903 0 -39 CLIMB
2026-09-05 14:12:16 300 449 34629 0 -41 CLIMB
2026-09-05 14:12:46 299 452 35411 0 -42 CLIMB
2026-09-05 14:13:16 298 455 36026 0 -44 ENROUTE
2026-09-05 14:13:46 294 449 36011 0 -44 ENROUTE
2026-09-05 14:14:16 293 448 36003 0 -44 ENROUTE
2026-09-05 14:14:46 293 447 36002 0 -44 ENROUTE
2026-09-05 14:15:16 293 447 36005 0 -44 ENROUTE
2026-09-05 14:15:46 292 446 36011 0 -44 ENROUTE
2026-09-05 14:16:16 293 447 36008 0 -44 ENROUTE
2026-09-05 14:16:46 293 447 36009 0 -44 ENROUTE
2026-09-05 14:17:16 293 447 36007 0 -44 ENROUTE
2026-09-05 14:17:46 292 446 36004 0 -44 ENROUTE
2026-09-05 14:18:16 293 447 36009 0 -44 ENROUTE
2026-09-05 14:18:46 293 446 36004 0 -44 ENROUTE
2026-09-05 14:19:16 293 446 36005 0 -44 ENROUTE
2026-09-05 14:19:46 293 447 36008 0 -44 ENROUTE
2026-09-05 14:20:16 294 446 35981 0 -44 ENROUTE
2026-09-05 14:20:46 293 444 35977 0 -44 ENROUTE
2026-09-05 14:21:16 292 443 35977 0 -44 ENROUTE
2026-09-05 14:21:46 292 443 35977 0 -44 ENROUTE
2026-09-05 14:22:16 292 444 35978 0 -44 ENROUTE
2026-09-05 14:22:46 293 444 35977 0 -44 ENROUTE
2026-09-05 14:23:16 292 443 35946 0 -44 DESCENT
2026-09-05 14:23:46 293 444 35943 0 -44 ENROUTE
2026-09-05 14:24:16 293 445 35946 0 -44 ENROUTE
2026-09-05 14:24:46 293 445 35946 0 -44 ENROUTE
2026-09-05 14:25:16 293 445 35945 0 -44 ENROUTE
2026-09-05 14:25:46 293 444 35944 0 -44 ENROUTE
2026-09-05 14:26:16 293 444 35945 0 -44 ENROUTE
2026-09-05 14:26:46 290 446 35905 0 -45 ENROUTE
2026-09-05 14:27:16 292 449 35908 0 -45 ENROUTE
2026-09-05 14:27:46 292 449 35907 0 -45 ENROUTE
2026-09-05 14:28:16 292 449 35907 0 -45 ENROUTE
2026-09-05 14:28:46 292 449 35907 0 -45 ENROUTE
2026-09-05 14:29:16 292 449 35907 0 -45 ENROUTE
2026-09-05 14:29:46 292 450 35907 0 -45 ENROUTE
2026-09-05 14:30:16 293 449 35880 0 -45 ENROUTE
2026-09-05 14:30:46 293 448 35879 0 -45 ENROUTE
2026-09-05 14:31:16 292 448 35879 0 -45 ENROUTE
2026-09-05 14:31:46 292 448 35879 0 -45 ENROUTE
2026-09-05 14:32:16 294 445 35874 0 -45 ENROUTE
2026-09-05 14:32:46 293 443 35873 0 -45 ENROUTE
2026-09-05 14:33:16 292 443 35872 0 -45 ENROUTE
2026-09-05 14:33:46 293 442 35830 0 -45 ENROUTE
2026-09-05 14:34:16 293 442 35829 0 -45 ENROUTE
2026-09-05 14:34:46 293 445 35829 0 -45 ENROUTE
2026-09-05 14:35:16 293 445 35829 0 -44 ENROUTE
2026-09-05 14:35:46 292 445 35828 0 -44 ENROUTE
2026-09-05 14:36:16 292 444 35829 0 -44 ENROUTE
2026-09-05 14:36:46 292 445 35828 0 -44 ENROUTE
2026-09-05 14:37:16 293 446 35780 0 -42 ENROUTE
2026-09-05 14:37:46 293 447 35781 0 -42 ENROUTE
2026-09-05 14:38:16 293 446 35780 0 -42 ENROUTE
2026-09-05 14:38:46 293 446 35782 0 -42 ENROUTE
2026-09-05 14:39:16 293 446 35781 0 -42 ENROUTE
2026-09-05 14:39:46 293 446 35765 0 -42 ENROUTE
2026-09-05 14:40:16 295 446 35766 0 -42 ENROUTE
2026-09-05 14:40:46 294 443 35740 0 -42 ENROUTE
2026-09-05 14:41:16 294 443 35737 0 -42 ENROUTE
2026-09-05 14:41:46 293 442 35735 0 -42 ENROUTE
2026-09-05 14:42:16 294 442 35736 0 -42 ENROUTE
2026-09-05 14:42:46 294 442 35722 0 -41 ENROUTE
2026-09-05 14:43:16 294 442 35721 0 -41 ENROUTE
2026-09-05 14:43:46 296 443 35689 0 -42 DESCENT
2026-09-05 14:44:16 294 440 35678 0 -41 ENROUTE
2026-09-05 14:44:46 294 439 35679 0 -41 ENROUTE
2026-09-05 14:45:16 294 438 35665 0 -42 ENROUTE
2026-09-05 14:45:46 293 436 35664 0 -42 ENROUTE
2026-09-05 14:46:16 293 436 35661 0 -42 ENROUTE
2026-09-05 14:46:46 293 436 35659 0 -42 ENROUTE
2026-09-05 14:47:16 293 436 35650 0 -42 ENROUTE
2026-09-05 14:47:46 293 434 35611 0 -42 ENROUTE
2026-09-05 14:48:16 293 433 35607 0 -42 ENROUTE
2026-09-05 14:48:46 293 433 35609 0 -42 ENROUTE
2026-09-05 14:49:16 293 433 35607 0 -42 ENROUTE
2026-09-05 14:49:46 293 433 35607 0 -42 ENROUTE
2026-09-05 14:50:16 293 433 35609 0 -42 ENROUTE
2026-09-05 14:50:46 293 433 35608 0 -42 ENROUTE
2026-09-05 14:51:16 293 433 35607 0 -42 ENROUTE
2026-09-05 14:51:46 293 432 35606 0 -42 ENROUTE
2026-09-05 14:52:16 293 433 35608 0 -42 ENROUTE
2026-09-05 14:52:46 293 433 35607 0 -42 ENROUTE
2026-09-05 14:53:16 293 433 35591 0 -42 ENROUTE
2026-09-05 14:53:46 293 432 35591 0 -42 ENROUTE
2026-09-05 14:54:16 293 432 35590 0 -42 ENROUTE
2026-09-05 14:54:46 294 429 35532 0 -42 ENROUTE
2026-09-05 14:55:16 293 428 35531 0 -42 ENROUTE
2026-09-05 14:55:46 293 427 35528 0 -42 ENROUTE
2026-09-05 14:56:16 293 425 35501 0 -42 ENROUTE
2026-09-05 14:56:46 293 424 35503 0 -42 ENROUTE
2026-09-05 14:57:16 293 424 35501 0 -42 ENROUTE
2026-09-05 14:57:46 293 423 35499 0 -42 ENROUTE
2026-09-05 14:58:16 293 423 35472 0 -42 ENROUTE
2026-09-05 14:58:46 294 422 35456 0 -42 ENROUTE
2026-09-05 14:59:16 293 420 35451 0 -42 ENROUTE
2026-09-05 14:59:46 293 420 35449 0 -42 ENROUTE
2026-09-05 15:00:16 293 420 35448 0 -42 ENROUTE
2026-09-05 15:00:46 292 420 35448 0 -42 ENROUTE
2026-09-05 15:01:16 293 420 35450 0 -42 ENROUTE
2026-09-05 15:01:46 294 419 35387 0 -42 ENROUTE
2026-09-05 15:02:16 294 417 35381 0 -42 ENROUTE
2026-09-05 15:02:46 293 416 35383 0 -42 ENROUTE
2026-09-05 15:03:16 292 416 35379 0 -42 ENROUTE
2026-09-05 15:03:46 293 416 35381 0 -42 ENROUTE
2026-09-05 15:04:16 292 416 35378 0 -42 ENROUTE
2026-09-05 15:04:46 293 415 35354 0 -42 ENROUTE
2026-09-05 15:05:16 293 415 35364 0 -42 ENROUTE
2026-09-05 15:05:46 293 414 35335 0 -42 ENROUTE
2026-09-05 15:06:16 293 415 35336 0 -42 ENROUTE
2026-09-05 15:06:46 293 414 35337 0 -42 ENROUTE
2026-09-05 15:07:16 293 414 35332 0 -42 ENROUTE
2026-09-05 15:07:46 293 413 35310 0 -42 ENROUTE
2026-09-05 15:08:16 293 412 35310 0 -42 ENROUTE
2026-09-05 15:08:46 293 413 35310 0 -42 ENROUTE
2026-09-05 15:09:16 294 412 35242 0 -42 ENROUTE
2026-09-05 15:09:46 293 411 35245 0 -42 ENROUTE
2026-09-05 15:10:16 293 412 35232 0 -42 ENROUTE
2026-09-05 15:10:46 294 413 35232 0 -42 ENROUTE
2026-09-05 15:11:16 293 412 35230 0 -42 ENROUTE
2026-09-05 15:11:46 293 411 35230 0 -42 ENROUTE
2026-09-05 15:12:16 294 412 35231 0 -42 ENROUTE
2026-09-05 15:12:46 293 410 35225 0 -42 ENROUTE
2026-09-05 15:13:16 292 409 35187 0 -42 ENROUTE
2026-09-05 15:13:46 293 410 35186 0 -42 ENROUTE
2026-09-05 15:14:16 293 410 35186 0 -42 ENROUTE
2026-09-05 15:14:46 293 410 35186 0 -42 ENROUTE
2026-09-05 15:15:16 293 410 35187 0 -42 ENROUTE
2026-09-05 15:15:46 293 410 35186 0 -42 ENROUTE
2026-09-05 15:16:16 293 410 35173 0 -42 ENROUTE
2026-09-05 15:16:46 293 411 35112 0 -43 DESCENT
2026-09-05 15:17:16 293 411 35109 0 -43 ENROUTE
2026-09-05 15:17:46 293 411 35109 0 -43 ENROUTE
2026-09-05 15:18:16 293 411 35111 0 -43 ENROUTE
2026-09-05 15:18:46 293 411 35107 0 -43 ENROUTE
2026-09-05 15:19:16 293 411 35106 0 -43 ENROUTE
2026-09-05 15:19:46 293 410 35106 0 -43 ENROUTE
2026-09-05 15:20:16 292 410 35108 0 -43 ENROUTE
2026-09-05 15:20:46 292 411 35071 0 -43 ENROUTE
2026-09-05 15:21:16 293 412 35073 0 -43 ENROUTE
2026-09-05 15:21:46 293 412 35072 0 -42 ENROUTE
2026-09-05 15:22:16 293 413 35051 0 -42 ENROUTE
2026-09-05 15:22:46 293 413 35052 0 -42 ENROUTE
2026-09-05 15:23:16 293 413 35050 0 -42 ENROUTE
2026-09-05 15:23:46 293 413 35051 0 -42 ENROUTE
2026-09-05 15:24:16 293 413 35049 0 -42 ENROUTE
2026-09-05 15:24:46 293 413 34981 0 -42 ENROUTE
2026-09-05 15:25:16 293 414 34972 0 -42 ENROUTE
2026-09-05 15:25:46 293 414 34974 0 -42 ENROUTE
2026-09-05 15:26:16 293 414 34973 0 -42 ENROUTE
2026-09-05 15:26:46 293 414 34974 0 -42 ENROUTE
2026-09-05 15:27:16 293 414 34973 0 -42 ENROUTE
2026-09-05 15:27:46 293 414 34950 0 -42 ENROUTE
2026-09-05 15:28:16 293 414 34955 0 -42 ENROUTE
2026-09-05 15:28:46 293 415 34955 0 -42 ENROUTE
2026-09-05 15:29:16 294 415 34953 0 -42 ENROUTE
2026-09-05 15:29:46 294 415 34954 0 -42 ENROUTE
2026-09-05 15:30:16 294 415 34955 0 -42 ENROUTE
2026-09-05 15:30:46 293 415 34936 0 -42 ENROUTE
2026-09-05 15:31:16 294 416 34934 0 -42 ENROUTE
2026-09-05 15:31:46 293 416 34935 0 -42 ENROUTE
2026-09-05 15:32:16 293 416 34872 0 -43 ENROUTE
2026-09-05 15:32:46 293 416 34873 0 -43 ENROUTE
2026-09-05 15:33:16 294 417 34873 0 -43 ENROUTE
2026-09-05 15:33:46 293 417 34866 0 -43 ENROUTE
2026-09-05 15:34:16 294 417 34866 0 -43 ENROUTE
2026-09-05 15:34:46 293 417 34866 0 -43 ENROUTE
2026-09-05 15:35:16 293 417 34866 0 -43 ENROUTE
2026-09-05 15:35:46 293 417 34823 0 -43 ENROUTE
2026-09-05 15:36:16 293 417 34822 0 -43 ENROUTE
2026-09-05 15:36:46 293 419 34820 0 -43 ENROUTE
2026-09-05 15:37:16 294 419 34820 0 -43 ENROUTE
2026-09-05 15:37:46 294 419 34820 0 -43 ENROUTE
2026-09-05 15:38:16 294 420 34821 0 -43 ENROUTE
2026-09-05 15:38:46 294 420 34821 0 -43 ENROUTE
2026-09-05 15:39:16 294 420 34812 0 -43 ENROUTE
2026-09-05 15:39:46 293 421 34720 0 -43 ENROUTE
2026-09-05 15:40:16 294 421 34721 0 -43 ENROUTE
2026-09-05 15:40:46 294 422 34722 0 -43 ENROUTE
2026-09-05 15:41:16 294 422 34723 0 -43 ENROUTE
2026-09-05 15:41:46 294 422 34723 0 -43 ENROUTE
2026-09-05 15:42:16 294 422 34711 0 -43 ENROUTE
2026-09-05 15:42:46 294 422 34709 0 -43 ENROUTE
2026-09-05 15:43:16 293 422 34666 0 -43 ENROUTE
2026-09-05 15:43:46 293 422 34665 0 -43 ENROUTE
2026-09-05 15:44:16 294 423 34665 0 -43 ENROUTE
2026-09-05 15:44:46 294 423 34665 0 -43 ENROUTE
2026-09-05 15:45:16 293 423 34650 0 -43 ENROUTE
2026-09-05 15:45:46 293 423 34650 0 -43 ENROUTE
2026-09-05 15:46:16 294 424 34651 0 -43 ENROUTE
2026-09-05 15:46:46 293 424 34651 0 -43 ENROUTE
2026-09-05 15:47:16 293 425 34603 0 -43 ENROUTE
2026-09-05 15:47:46 293 426 34603 0 -43 ENROUTE
2026-09-05 15:48:16 294 426 34604 0 -43 ENROUTE
2026-09-05 15:48:46 294 426 34605 0 -43 ENROUTE
2026-09-05 15:49:16 293 425 34603 0 -43 ENROUTE
2026-09-05 15:49:46 293 424 34601 0 -43 ENROUTE
2026-09-05 15:50:16 292 424 34600 0 -43 ENROUTE
2026-09-05 15:50:46 291 426 34532 0 -43 ENROUTE
2026-09-05 15:51:16 292 427 34530 0 -43 ENROUTE
2026-09-05 15:51:46 292 427 34530 0 -43 ENROUTE
2026-09-05 15:52:16 293 427 34528 0 -43 ENROUTE
2026-09-05 15:52:46 293 427 34529 0 -43 ENROUTE
2026-09-05 15:53:16 293 428 34529 0 -43 ENROUTE
2026-09-05 15:53:46 293 428 34513 0 -43 ENROUTE
2026-09-05 15:54:16 292 428 34478 0 -43 DESCENT
2026-09-05 15:54:46 284 415 34465 0 -43 ENROUTE
2026-09-05 15:55:16 281 403 33788 0 -43 DESCENT
2026-09-05 15:55:46 284 400 32791 0 -43 DESCENT
2026-09-05 15:56:16 284 393 31898 0 -42 DESCENT
2026-09-05 15:56:46 284 387 30978 0 -42 DESCENT
2026-09-05 15:57:16 285 382 30067 0 -42 DESCENT
2026-09-05 15:57:46 285 377 29149 0 -41 DESCENT
2026-09-05 15:58:16 283 368 28350 0 -41 DESCENT
2026-09-05 15:58:46 282 360 27578 0 -39 DESCENT
2026-09-05 15:59:16 280 352 26816 0 -38 DESCENT
2026-09-05 15:59:46 279 344 26047 0 -37 DESCENT
2026-09-05 16:00:16 278 336 25286 0 -35 DESCENT
2026-09-05 16:00:46 276 329 24519 0 -34 DESCENT
2026-09-05 16:01:16 274 322 23753 0 -33 DESCENT
2026-09-05 16:01:46 273 315 22990 0 -31 DESCENT
2026-09-05 16:02:16 269 306 22328 0 -30 DESCENT
2026-09-05 16:02:46 264 296 21720 0 -29 DESCENT
2026-09-05 16:03:16 259 287 21094 0 -29 DESCENT
2026-09-05 16:03:46 255 279 20483 0 -28 DESCENT
2026-09-05 16:04:16 249 270 19901 0 -27 DESCENT
2026-09-05 16:04:46 243 262 19327 0 -26 DESCENT
2026-09-05 16:05:16 238 254 18761 0 -26 DESCENT
2026-09-05 16:05:46 236 251 18207 0 -25 DESCENT
2026-09-05 16:06:16 232 244 17642 0 -24 DESCENT
2026-09-05 16:06:46 231 241 17164 0 -23 DESCENT
2026-09-05 16:07:16 231 240 16688 0 -22 DESCENT
2026-09-05 16:07:46 231 237 16210 0 -22 DESCENT
2026-09-05 16:08:16 230 235 15730 0 -21 DESCENT
2026-09-05 16:08:46 230 235 15252 0 -20 DESCENT
2026-09-05 16:09:16 230 233 14765 0 -20 DESCENT
2026-09-05 16:09:46 230 232 14268 0 -19 DESCENT
2026-09-05 16:10:16 230 230 13765 0 -18 DESCENT
2026-09-05 16:10:46 229 229 13267 0 -17 DESCENT
2026-09-05 16:11:16 229 229 12819 0 -17 DESCENT
2026-09-05 16:11:46 229 229 12375 0 -16 DESCENT
2026-09-05 16:12:16 228 229 11926 0 -16 DESCENT
2026-09-05 16:12:46 228 230 11465 0 -15 DESCENT
2026-09-05 16:13:16 228 230 10993 0 -15 DESCENT
2026-09-05 16:13:46 228 231 10524 0 -14 DESCENT
2026-09-05 16:14:16 229 233 10298 0 -14 DESCENT
2026-09-05 16:14:46 230 235 10072 0 -14 DESCENT
2026-09-05 16:15:16 229 234 10047 0 -14 ENROUTE
2026-09-05 16:15:46 229 234 10048 0 -14 ENROUTE
2026-09-05 16:16:16 229 234 10030 0 -14 ENROUTE
2026-09-05 16:16:46 229 235 10032 0 -14 ENROUTE
2026-09-05 16:17:16 237 243 9627 0 -13 DESCENT
2026-09-05 16:17:46 236 242 8917 0 -12 DESCENT
2026-09-05 16:18:16 219 232 8304 0 -10 DESCENT
2026-09-05 16:18:46 202 210 7592 0 -9 DESCENT
2026-09-05 16:19:16 191 194 6846 0 -7 DESCENT
2026-09-05 16:19:46 177 177 6099 0 -5 DESCENT
2026-09-05 16:20:16 168 167 5321 0 -3 DESCENT
2026-09-05 16:20:46 165 161 4555 0 -3 DESCENT
2026-09-05 16:21:16 147 136 4058 0 -2 DESCENT
2026-09-05 16:21:46 161 148 4202 0 -2 ENROUTE
2026-09-05 16:22:16 167 155 4282 0 -2 ENROUTE
2026-09-05 16:22:46 166 157 4282 0 -2 ENROUTE
2026-09-05 16:23:16 176 168 4281 0 -2 ENROUTE
2026-09-05 16:23:46 179 170 4281 0 -2 ENROUTE
2026-09-05 16:24:16 179 169 4279 0 -2 ENROUTE
2026-09-05 16:24:46 178 166 4262 0 -2 ENROUTE
2026-09-05 16:25:16 180 175 4283 0 -2 ENROUTE
2026-09-05 16:25:46 178 170 4279 0 -2 ENROUTE
2026-09-05 16:26:16 179 170 4281 0 -2 ENROUTE
2026-09-05 16:26:46 179 169 4287 0 -2 ENROUTE
2026-09-05 16:27:16 182 170 4289 0 -2 ENROUTE
2026-09-05 16:27:46 180 171 4288 0 -2 ENROUTE
2026-09-05 16:28:16 180 169 4289 0 -2 ENROUTE
2026-09-05 16:28:46 180 171 4287 0 -2 ENROUTE
2026-09-05 16:29:16 179 171 4283 0 -2 ENROUTE
2026-09-05 16:29:46 178 189 4272 0 -2 ENROUTE
2026-09-05 16:30:16 181 196 4173 0 -2 DESCENT
2026-09-05 16:30:46 166 180 3666 0 -1 DESCENT
2026-09-05 16:31:16 163 176 3609 0 -1 ENROUTE
2026-09-05 16:31:46 164 183 3366 0 0 DESCENT
2026-09-05 16:32:16 159 178 2922 0 0 DESCENT
2026-09-05 16:32:46 159 176 2452 0 2 APPROACH
2026-09-05 16:33:16 158 171 1989 0 3 APPROACH
2026-09-05 16:33:46 159 173 1537 0 4 APPROACH
2026-09-05 16:34:16 156 171 1151 0 6 APPROACH
2026-09-05 16:34:46 161 174 878 0 8 ON FINAL
2026-09-05 16:35:16 157 165 248 0 11 ON FINAL
2026-09-05 16:35:46 86 94 86 0 11 ON FINAL
2026-09-05 16:36:16 6 14 89 0 11 TAXI TO APRON
2026-09-05 16:36:46 21 13 82 1 11 TAXI TO APRON
2026-09-05 16:37:16 12 0 81 1 11 TAXI TO APRON
2026-09-05 16:37:46 23 5 81 1 11 TAXI TO APRON
2026-09-05 16:38:16 11 0 81 1 11 TAXI TO APRON
2026-09-05 16:38:46 11 0 81 1 11 TAXI TO APRON
  • Join our VA!

    It has been 11 years of great learning, friendships, and stories.

  • Sign up now!